Dades meteomassalio
Diari Summary for Abril 18, 2017 Units:  Metric    English   Both
« Previous Day
Next Day »
Diari Semanal Mensual Anual Personalitzat
  Maxima: Minima: Mijana:
Temperatura: 24.9 °C 10.2 °C 17.5 °C
Rosada: 10.3 °C 5.5 °C 7.8 °C
Humitat: 82 % 31 % 56 %
Velocitat del vent: 33.3 km/h 0.0 km/h 11.3 km/h
Racha vent: 33.3 km/h - -
Vent:- - WNW
Pressio: 1017.8 hPa 1013.1 hPa -
Pluja: 0.0 mm    
Historical Graphs
 
 
Tabular Data for Abril 18, 2017
Time Temperature Dew Point Pressure Wind Wind Speed Wind Gust Humidity Rainfall Rate (Hourly) solar Conditions
00:00 13.8 °C 10.0 °C 1016.1 hPa Calm     78 % 0.0 mm 0.0 W/m2 CLR
00:05 13.9 °C 10.3 °C 1016.5 hPa Calm     79 % 0.0 mm 0.0 W/m2 CLR
00:10 14.0 °C 10.2 °C 1016.5 hPa Calm     78 % 0.0 mm 0.0 W/m2 CLR
00:15 14.1 °C 10.3 °C 1016.5 hPa Calm     78 % 0.0 mm 0.0 W/m2 CLR
00:20 13.9 °C 10.0 °C 1016.5 hPa Calm     77 % 0.0 mm 0.0 W/m2 CLR
00:25 13.7 °C 9.8 °C 1016.5 hPa Calm     77 % 0.0 mm 0.0 W/m2 CLR
00:31 13.6 °C 9.6 °C 1016.5 hPa Calm     77 % 0.0 mm 0.0 W/m2 CLR
00:36 13.3 °C 9.6 °C 1016.5 hPa Calm     78 % 0.0 mm 0.0 W/m2 CLR
00:41 13.1 °C 9.3 °C 1016.5 hPa Calm     78 % 0.0 mm 0.0 W/m2 CLR
00:46 12.9 °C 9.2 °C 1016.5 hPa Calm     78 % 0.0 mm 0.0 W/m2 CLR
00:51 12.7 °C 9.2 °C 1016.5 hPa Calm     79 % 0.0 mm 0.0 W/m2 CLR
00:56 12.6 °C 9.1 °C 1016.5 hPa Calm     79 % 0.0 mm 0.0 W/m2 CLR
01:01 12.6 °C 9.2 °C 1016.8 hPa Calm     80 % 0.0 mm 0.0 W/m2 CLR
01:06 12.5 °C 9.2 °C 1016.8 hPa Calm     80 % 0.0 mm 0.0 W/m2 CLR
01:11 12.4 °C 9.1 °C 1016.8 hPa Calm     80 % 0.0 mm 0.0 W/m2 CLR
01:16 12.3 °C 9.1 °C 1017.2 hPa Calm     81 % 0.0 mm 0.0 W/m2 CLR
01:21 12.1 °C 8.9 °C 1017.2 hPa Calm     81 % 0.0 mm 0.0 W/m2 CLR
01:26 12.0 °C 8.8 °C 1017.2 hPa Calm     81 % 0.0 mm 0.0 W/m2 CLR
01:31 11.9 °C 8.7 °C 1017.2 hPa Calm     81 % 0.0 mm 0.0 W/m2 CLR
01:36 11.9 °C 8.7 °C 1017.2 hPa Calm     81 % 0.0 mm 0.0 W/m2 CLR
01:41 11.8 °C 8.8 °C 1017.2 hPa Calm     82 % 0.0 mm 0.0 W/m2 CLR
01:46 11.8 °C 8.7 °C 1017.2 hPa Calm     81 % 0.0 mm 0.0 W/m2 CLR
01:51 11.9 °C 8.7 °C 1017.5 hPa Calm     81 % 0.0 mm 0.0 W/m2 CLR
01:57 12.0 °C 8.8 °C 1017.5 hPa Calm     81 % 0.0 mm 0.0 W/m2 CLR
02:01 12.2 °C 8.9 °C 1017.5 hPa Calm     80 % 0.0 mm 0.0 W/m2 CLR
02:06 12.3 °C 8.6 °C 1017.5 hPa Calm     78 % 0.0 mm 0.0 W/m2 CLR
02:11 12.1 °C 8.2 °C 1017.5 hPa Calm     77 % 0.0 mm 0.0 W/m2 CLR
02:16 11.8 °C 8.1 °C 1017.5 hPa Calm     78 % 0.0 mm 0.0 W/m2 CLR
02:22 11.7 °C 8.2 °C 1017.5 hPa Calm     79 % 0.0 mm 0.0 W/m2 CLR
02:27 11.7 °C 7.8 °C 1017.5 hPa Calm     77 % 0.0 mm 0.0 W/m2 CLR
02:32 12.1 °C 8.2 °C 1017.5 hPa WNW 8.0 km/h 8.0 km/h 77 % 0.0 mm 0.0 W/m2 CLR
02:37 12.9 °C 8.6 °C 1017.5 hPa WNW 9.7 km/h 9.7 km/h 75 % 0.0 mm 0.0 W/m2 CLR
02:42 14.1 °C 8.9 °C 1017.5 hPa West 13.0 km/h 13.0 km/h 71 % 0.0 mm 0.0 W/m2 CLR
02:47 14.7 °C 8.9 °C 1017.5 hPa WNW 3.7 km/h 3.7 km/h 68 % 0.0 mm 0.0 W/m2 CLR
02:52 14.6 °C 8.5 °C 1017.5 hPa Calm     67 % 0.0 mm 0.0 W/m2 CLR
02:57 14.3 °C 8.3 °C 1017.5 hPa Calm     67 % 0.0 mm 0.0 W/m2 CLR
03:02 14.3 °C 8.5 °C 1017.5 hPa WSW 3.7 km/h 3.7 km/h 68 % 0.0 mm 0.0 W/m2 CLR
03:07 14.4 °C 8.6 °C 1017.5 hPa SW 11.1 km/h 11.1 km/h 68 % 0.0 mm 0.0 W/m2 CLR
03:12 14.4 °C 8.3 °C 1017.2 hPa WSW 8.0 km/h 8.0 km/h 67 % 0.0 mm 0.0 W/m2 CLR
03:17 14.2 °C 8.3 °C 1017.2 hPa SW 9.3 km/h 9.3 km/h 68 % 0.0 mm 0.0 W/m2 CLR
03:22 13.9 °C 8.1 °C 1017.2 hPa WSW 1.9 km/h   68 % 0.0 mm 0.0 W/m2 CLR
03:27 13.8 °C 8.2 °C 1017.2 hPa Calm     69 % 0.0 mm 0.0 W/m2 CLR
03:32 13.8 °C 8.2 °C 1017.2 hPa Calm     69 % 0.0 mm 0.0 W/m2 CLR
03:37 13.7 °C 8.1 °C 1017.2 hPa Calm     69 % 0.0 mm 0.0 W/m2 CLR
03:42 13.4 °C 8.0 °C 1017.2 hPa WSW 4.8 km/h 4.8 km/h 70 % 0.0 mm 0.0 W/m2 CLR
03:47 13.2 °C 7.9 °C 1017.2 hPa WSW 1.9 km/h   70 % 0.0 mm 0.0 W/m2 CLR
03:52 13.2 °C 8.1 °C 1017.2 hPa WSW 3.7 km/h   71 % 0.0 mm 0.0 W/m2 CLR
03:57 13.1 °C 7.8 °C 1017.5 hPa SW 5.6 km/h 5.6 km/h 70 % 0.0 mm 0.0 W/m2 CLR
04:02 12.9 °C 7.8 °C 1017.2 hPa WSW 7.4 km/h 7.4 km/h 71 % 0.0 mm 0.0 W/m2 CLR
04:07 12.7 °C 7.7 °C 1017.2 hPa WSW 5.6 km/h 5.6 km/h 72 % 0.0 mm 0.0 W/m2 CLR
04:12 12.6 °C 7.7 °C 1017.2 hPa Calm     72 % 0.0 mm 0.0 W/m2 CLR
04:17 12.7 °C 7.8 °C 1017.2 hPa Calm     72 % 0.0 mm 0.0 W/m2 CLR
04:22 12.7 °C 7.6 °C 1017.2 hPa Calm     71 % 0.0 mm 0.0 W/m2 CLR
04:27 12.4 °C 7.3 °C 1017.2 hPa Calm     71 % 0.0 mm 0.0 W/m2 CLR
04:32 12.0 °C 7.3 °C 1017.2 hPa Calm     73 % 0.0 mm 0.0 W/m2 CLR
04:37 12.1 °C 7.4 °C 1017.2 hPa Calm     73 % 0.0 mm 0.0 W/m2 CLR
04:42 12.1 °C 7.4 °C 1017.2 hPa West 5.6 km/h 5.6 km/h 73 % 0.0 mm 0.0 W/m2 CLR
04:47 12.2 °C 7.5 °C 1017.2 hPa Calm     73 % 0.0 mm 0.0 W/m2 CLR
04:52 12.0 °C 7.1 °C 1017.2 hPa Calm     72 % 0.0 mm 0.0 W/m2 CLR
04:57 11.4 °C 6.8 °C 1017.2 hPa Calm     73 % 0.0 mm 0.0 W/m2 CLR
05:02 11.1 °C 6.7 °C 1016.8 hPa Calm     74 % 0.0 mm 0.0 W/m2 CLR
05:07 10.9 °C 6.9 °C 1016.8 hPa WSW 7.4 km/h 7.4 km/h 76 % 0.0 mm 0.0 W/m2 CLR
05:12 10.9 °C 7.0 °C 1016.8 hPa WSW 16.7 km/h 16.7 km/h 77 % 0.0 mm 0.0 W/m2 CLR
05:17 11.2 °C 7.2 °C 1016.8 hPa West 16.7 km/h 16.7 km/h 76 % 0.0 mm 0.0 W/m2 CLR
05:22 11.8 °C 7.3 °C 1016.8 hPa WSW 14.8 km/h 14.8 km/h 74 % 0.0 mm 0.0 W/m2 CLR
05:27 12.1 °C 7.2 °C 1016.8 hPa West 14.8 km/h 14.8 km/h 72 % 0.0 mm 0.0 W/m2 CLR
05:32 12.2 °C 7.3 °C 1016.8 hPa WSW 5.6 km/h 5.6 km/h 72 % 0.0 mm 0.0 W/m2 CLR
05:37 12.2 °C 7.3 °C 1016.8 hPa SW 8.0 km/h 8.0 km/h 72 % 0.0 mm 0.0 W/m2 CLR
05:42 12.1 °C 7.2 °C 1016.8 hPa SSW 7.4 km/h 7.4 km/h 72 % 0.0 mm 0.0 W/m2 CLR
05:47 11.8 °C 6.9 °C 1016.8 hPa Calm     72 % 0.0 mm 0.0 W/m2 CLR
05:52 11.3 °C 6.8 °C 1016.8 hPa SSW 7.4 km/h 7.4 km/h 74 % 0.0 mm 0.0 W/m2 CLR
05:57 10.8 °C 6.6 °C 1016.8 hPa WSW 5.6 km/h 5.6 km/h 75 % 0.0 mm 0.0 W/m2 CLR
06:02 10.6 °C 6.5 °C 1016.8 hPa SW 11.1 km/h 11.1 km/h 76 % 0.0 mm 0.0 W/m2 CLR
06:07 10.3 °C 6.5 °C 1016.8 hPa WSW 11.1 km/h 11.1 km/h 77 % 0.0 mm 0.0 W/m2 CLR
06:12 10.4 °C 6.7 °C 1016.8 hPa WSW 9.3 km/h 9.3 km/h 78 % 0.0 mm 0.0 W/m2 CLR
06:17 10.3 °C 6.7 °C 1016.5 hPa WSW 11.3 km/h 11.3 km/h 78 % 0.0 mm 0.0 W/m2 CLR
06:22 10.5 °C 6.8 °C 1016.5 hPa WSW 5.6 km/h 5.6 km/h 78 % 0.0 mm 0.0 W/m2 CLR
06:27 10.6 °C 6.7 °C 1016.8 hPa WSW 11.1 km/h 11.1 km/h 77 % 0.0 mm 0.0 W/m2 CLR
06:32 10.6 °C 6.7 °C 1016.8 hPa SW 13.0 km/h 13.0 km/h 77 % 0.0 mm 0.0 W/m2 CLR
06:37 10.6 °C 6.7 °C 1016.8 hPa SW 11.1 km/h 11.1 km/h 77 % 0.0 mm 0.0 W/m2 CLR
06:42 10.5 °C 6.4 °C 1016.8 hPa SW 5.6 km/h 5.6 km/h 76 % 0.0 mm 0.0 W/m2 CLR
06:47 10.3 °C 6.4 °C 1016.8 hPa SW 11.3 km/h 11.3 km/h 77 % 0.0 mm 0.0 W/m2 CLR
06:52 10.2 °C 6.5 °C 1016.8 hPa WSW 11.1 km/h 11.1 km/h 78 % 0.0 mm 0.0 W/m2 CLR
06:57 10.3 °C 6.7 °C 1017.2 hPa WSW 11.3 km/h 11.3 km/h 78 % 0.0 mm 0.0 W/m2 CLR
07:02 10.6 °C 6.7 °C 1017.2 hPa WSW 12.9 km/h 12.9 km/h 77 % 0.0 mm 0.0 W/m2 CLR
07:07 10.6 °C 6.6 °C 1016.8 hPa SW 9.3 km/h 9.3 km/h 76 % 0.0 mm 0.0 W/m2 OVC
07:12 10.6 °C 6.6 °C 1016.8 hPa Calm     76 % 0.0 mm 0.0 W/m2 OVC
07:17 10.4 °C 6.3 °C 1017.2 hPa Calm     76 % 0.0 mm 5.0 W/m2 OVC
07:22 10.3 °C 6.7 °C 1017.2 hPa WSW 7.4 km/h 7.4 km/h 78 % 0.0 mm 9.0 W/m2 BKN
07:27 10.6 °C 6.7 °C 1017.2 hPa Calm     77 % 0.0 mm 12.0 W/m2 BKN
07:32 10.8 °C 6.7 °C 1017.2 hPa WSW 6.4 km/h 6.4 km/h 76 % 0.0 mm 16.0 W/m2 BKN
07:37 11.0 °C 6.7 °C 1017.2 hPa WSW 7.4 km/h 7.4 km/h 75 % 0.0 mm 19.0 W/m2 BKN
07:42 11.2 °C 6.7 °C 1017.2 hPa WSW 7.4 km/h 7.4 km/h 74 % 0.0 mm 23.0 W/m2 BKN
07:47 11.4 °C 6.9 °C 1017.2 hPa Calm     74 % 0.0 mm 30.0 W/m2 BKN
07:52 11.6 °C 6.9 °C 1017.2 hPa Calm     73 % 0.0 mm 40.0 W/m2 BKN
07:57 11.6 °C 6.9 °C 1017.5 hPa Calm     73 % 0.0 mm 53.0 W/m2 SCT
08:02 11.5 °C 7.0 °C 1017.5 hPa Calm     74 % 0.0 mm 63.0 W/m2 SCT
08:07 11.8 °C 7.1 °C 1017.5 hPa Calm     73 % 0.0 mm 56.0 W/m2 SCT
08:12 11.9 °C 7.3 °C 1017.5 hPa Calm     73 % 0.0 mm 81.0 W/m2 FEW
08:17 12.2 °C 7.3 °C 1017.5 hPa Calm     72 % 0.0 mm 109.0 W/m2 FEW
08:19 12.2 °C 7.3 °C 1017.5 hPa Calm     72 % 0.0 mm 114.0 W/m2 CLR
08:24 12.3 °C 7.4 °C 1017.5 hPa West 4.8 km/h 4.8 km/h 72 % 0.0 mm 132.0 W/m2 CLR
08:29 12.7 °C 7.6 °C 1017.5 hPa Calm     71 % 0.0 mm 135.0 W/m2 CLR
08:34 12.9 °C 7.6 °C 1017.8 hPa Calm     70 % 0.0 mm 162.0 W/m2 CLR
08:39 12.8 °C 7.4 °C 1017.8 hPa Calm     70 % 0.0 mm 172.0 W/m2 CLR
08:44 12.4 °C 7.3 °C 1017.8 hPa Calm     71 % 0.0 mm 178.0 W/m2 CLR
08:49 12.3 °C 7.2 °C 1017.8 hPa Calm     71 % 0.0 mm 192.0 W/m2 CLR
08:54 12.5 °C 7.6 °C 1017.8 hPa Calm     72 % 0.0 mm 181.0 W/m2 CLR
08:59 12.9 °C 7.8 °C 1017.8 hPa Calm     71 % 0.0 mm 209.0 W/m2 CLR
09:04 13.3 °C 7.9 °C 1017.8 hPa Calm     70 % 0.0 mm 135.0 W/m2 CLR
09:09 13.4 °C 7.9 °C 1017.8 hPa Calm     69 % 0.0 mm 185.0 W/m2 CLR
09:14 13.9 °C 7.6 °C 1017.8 hPa West 13.0 km/h 13.0 km/h 66 % 0.0 mm 276.0 W/m2 CLR
09:19 14.6 °C 7.6 °C 1017.5 hPa West 9.3 km/h 9.3 km/h 63 % 0.0 mm 299.0 W/m2 CLR
09:24 15.0 °C 7.6 °C 1017.5 hPa WNW 11.1 km/h 11.7 km/h 61 % 0.0 mm 343.0 W/m2 CLR
09:29 15.2 °C 7.5 °C 1017.5 hPa WNW 24.1 km/h 24.1 km/h 60 % 0.0 mm 355.0 W/m2 CLR
09:34 15.3 °C 7.3 °C 1017.5 hPa WNW 20.4 km/h 20.4 km/h 59 % 0.0 mm 373.0 W/m2 CLR
09:39 15.6 °C 7.6 °C 1017.5 hPa West 16.7 km/h 16.7 km/h 59 % 0.0 mm 385.0 W/m2 CLR
09:44 15.6 °C 7.4 °C 1017.5 hPa West 29.6 km/h 29.6 km/h 58 % 0.0 mm 401.0 W/m2 CLR
09:49 15.6 °C 7.6 °C 1017.5 hPa NNW 19.3 km/h 19.3 km/h 59 % 0.0 mm 418.0 W/m2 CLR
09:54 15.7 °C 7.2 °C 1017.5 hPa WNW 24.1 km/h 24.1 km/h 57 % 0.0 mm 438.0 W/m2 CLR
09:59 15.6 °C 7.3 °C 1017.5 hPa NW 18.5 km/h 18.5 km/h 58 % 0.0 mm 454.0 W/m2 CLR
10:04 15.7 °C 7.5 °C 1017.5 hPa West 25.9 km/h 25.9 km/h 58 % 0.0 mm 469.0 W/m2 CLR
10:09 15.6 °C 7.4 °C 1017.5 hPa WSW 22.2 km/h 22.2 km/h 58 % 0.0 mm 483.0 W/m2 CLR
10:14 15.8 °C 7.8 °C 1017.2 hPa WNW 13.0 km/h 13.0 km/h 59 % 0.0 mm 499.0 W/m2 CLR
10:19 16.0 °C 7.5 °C 1017.2 hPa West 25.7 km/h 25.7 km/h 57 % 0.0 mm 519.0 W/m2 CLR
10:24 16.2 °C 7.9 °C 1017.2 hPa NW 20.4 km/h 20.4 km/h 58 % 0.0 mm 533.0 W/m2 CLR
10:29 16.3 °C 7.7 °C 1017.2 hPa WNW 13.0 km/h 13.0 km/h 57 % 0.0 mm 545.0 W/m2 CLR
10:34 16.7 °C 7.3 °C 1017.2 hPa WNW 30.6 km/h 30.6 km/h 54 % 0.0 mm 561.0 W/m2 CLR
10:39 16.7 °C 7.3 °C 1017.2 hPa NW 27.8 km/h 27.8 km/h 54 % 0.0 mm 575.0 W/m2 CLR
10:44 16.8 °C 7.4 °C 1017.2 hPa NW 31.5 km/h 31.5 km/h 54 % 0.0 mm 589.0 W/m2 CLR
10:49 16.7 °C 7.3 °C 1017.2 hPa NW 33.3 km/h 33.3 km/h 54 % 0.0 mm 605.0 W/m2 CLR
10:54 16.8 °C 7.7 °C 1017.2 hPa WNW 20.4 km/h 20.4 km/h 55 % 0.0 mm 617.0 W/m2 CLR
10:59 16.9 °C 7.5 °C 1017.2 hPa NW 18.5 km/h 18.5 km/h 54 % 0.0 mm 631.0 W/m2 CLR
11:04 17.3 °C 7.9 °C 1017.2 hPa NW 29.0 km/h 29.0 km/h 54 % 0.0 mm 643.0 W/m2 CLR
11:09 17.4 °C 7.5 °C 1017.2 hPa WNW 18.5 km/h 18.5 km/h 52 % 0.0 mm 654.0 W/m2 CLR
11:14 17.6 °C 7.6 °C 1017.2 hPa NW 25.9 km/h 25.9 km/h 52 % 0.0 mm 666.0 W/m2 CLR
11:19 17.6 °C 7.6 °C 1017.5 hPa NNW 27.8 km/h 27.8 km/h 52 % 0.0 mm 677.0 W/m2 CLR
11:24 17.7 °C 7.7 °C 1017.5 hPa NNW 25.9 km/h 25.9 km/h 52 % 0.0 mm 691.0 W/m2 CLR
11:29 17.7 °C 7.4 °C 1017.2 hPa WNW 22.2 km/h 22.2 km/h 51 % 0.0 mm 700.0 W/m2 CLR
11:34 17.8 °C 7.8 °C 1017.2 hPa NW 20.4 km/h 20.4 km/h 52 % 0.0 mm 710.0 W/m2 CLR
11:39 18.1 °C 7.4 °C 1017.2 hPa WNW 31.5 km/h 31.5 km/h 50 % 0.0 mm 721.0 W/m2 CLR
11:44 18.2 °C 7.6 °C 1017.2 hPa West 27.4 km/h 27.4 km/h 50 % 0.0 mm 737.0 W/m2 CLR
11:49 18.3 °C 8.0 °C 1017.2 hPa NW 24.1 km/h 24.1 km/h 51 % 0.0 mm 745.0 W/m2 CLR
11:54 18.6 °C 7.9 °C 1017.2 hPa West 29.6 km/h 29.6 km/h 50 % 0.0 mm 752.0 W/m2 CLR
11:59 18.6 °C 7.7 °C 1017.2 hPa West 25.9 km/h 25.9 km/h 49 % 0.0 mm 761.0 W/m2 CLR
12:04 18.6 °C 8.2 °C 1016.8 hPa WNW 20.4 km/h 20.4 km/h 51 % 0.0 mm 775.0 W/m2 CLR
12:09 19.0 °C 8.1 °C 1016.8 hPa NNW 18.5 km/h 18.5 km/h 49 % 0.0 mm 784.0 W/m2 CLR
12:14 19.3 °C 8.0 °C 1016.8 hPa NW 27.8 km/h 27.8 km/h 48 % 0.0 mm 795.0 W/m2 CLR
12:19 19.2 °C 7.6 °C 1016.8 hPa NW 22.2 km/h 22.2 km/h 47 % 0.0 mm 800.0 W/m2 CLR
12:24 19.3 °C 8.1 °C 1016.8 hPa WNW 18.5 km/h 18.5 km/h 48 % 0.0 mm 803.0 W/m2 CLR
12:29 19.7 °C 8.3 °C 1016.8 hPa NW 18.5 km/h 18.5 km/h 48 % 0.0 mm 816.0 W/m2 CLR
12:34 19.9 °C 7.9 °C 1016.8 hPa NW 25.9 km/h 25.9 km/h 46 % 0.0 mm 821.0 W/m2 CLR
12:39 19.4 °C 7.8 °C 1016.5 hPa NW 25.9 km/h 25.9 km/h 47 % 0.0 mm 831.0 W/m2 CLR
12:44 19.7 °C 8.1 °C 1016.5 hPa WNW 22.2 km/h 22.2 km/h 47 % 0.0 mm 837.0 W/m2 CLR
12:49 19.8 °C 8.1 °C 1016.5 hPa WSW 11.1 km/h 11.1 km/h 47 % 0.0 mm 844.0 W/m2 CLR
12:54 19.9 °C 8.6 °C 1016.5 hPa NW 16.7 km/h 16.7 km/h 48 % 0.0 mm 849.0 W/m2 CLR
12:59 20.2 °C 8.5 °C 1016.5 hPa NW 29.6 km/h 29.6 km/h 47 % 0.0 mm 858.0 W/m2 CLR
13:04 20.3 °C 8.6 °C 1016.5 hPa NNW 24.1 km/h 24.1 km/h 47 % 0.0 mm 860.0 W/m2 CLR
13:09 20.4 °C 9.1 °C 1016.5 hPa NNW 22.5 km/h 22.5 km/h 48 % 0.0 mm 861.0 W/m2 CLR
13:14 20.6 °C 8.8 °C 1016.1 hPa West 25.9 km/h 25.9 km/h 47 % 0.0 mm 860.0 W/m2 CLR
13:19 20.7 °C 8.9 °C 1016.1 hPa NW 7.4 km/h 7.4 km/h 47 % 0.0 mm 824.0 W/m2 CLR
13:24 21.1 °C 9.1 °C 1016.1 hPa WNW 20.4 km/h 20.4 km/h 46 % 0.0 mm 856.0 W/m2 CLR
13:29 21.2 °C 9.1 °C 1016.1 hPa WNW 31.5 km/h 31.5 km/h 46 % 0.0 mm 881.0 W/m2 CLR
13:34 21.3 °C 8.8 °C 1016.1 hPa WNW 20.9 km/h 20.9 km/h 45 % 0.0 mm 888.0 W/m2 CLR
13:39 21.5 °C 9.4 °C 1015.8 hPa NW 29.6 km/h 29.6 km/h 46 % 0.0 mm 874.0 W/m2 CLR
13:44 21.3 °C 8.8 °C 1015.8 hPa NNW 16.7 km/h 16.7 km/h 45 % 0.0 mm 889.0 W/m2 CLR
13:49 21.4 °C 8.9 °C 1015.8 hPa NNW 18.5 km/h 18.5 km/h 45 % 0.0 mm 881.0 W/m2 CLR
13:54 21.6 °C 8.8 °C 1015.5 hPa NW 24.1 km/h 24.1 km/h 44 % 0.0 mm 893.0 W/m2 CLR
13:59 21.8 °C 9.1 °C 1015.5 hPa Calm     44 % 0.0 mm 896.0 W/m2 CLR
14:04 22.1 °C 9.2 °C 1015.5 hPa WNW 20.4 km/h 20.4 km/h 44 % 0.0 mm 904.0 W/m2 CLR
14:09 22.1 °C 8.9 °C 1015.5 hPa NNW 18.5 km/h 18.5 km/h 43 % 0.0 mm 853.0 W/m2 CLR
14:14 22.3 °C 8.8 °C 1015.5 hPa NNW 24.1 km/h 24.1 km/h 42 % 0.0 mm 914.0 W/m2 CLR
14:19 22.4 °C 8.8 °C 1015.1 hPa WNW 20.9 km/h 20.9 km/h 42 % 0.0 mm 898.0 W/m2 CLR
14:20 22.4 °C 8.9 °C 1015.1 hPa NW 6.4 km/h 11.9 km/h 42 % 0.0 mm 898.0 W/m2 CLR
14:25 22.7 °C 9.2 °C 1015.5 hPa NW 16.7 km/h 16.7 km/h 42 % 0.0 mm 786.0 W/m2 CLR
14:30 22.6 °C 8.7 °C 1015.1 hPa West 14.8 km/h 14.8 km/h 41 % 0.0 mm 858.0 W/m2 CLR
14:35 22.9 °C 8.9 °C 1015.1 hPa West 11.1 km/h 11.1 km/h 41 % 0.0 mm 925.0 W/m2 CLR
14:40 22.9 °C 9.0 °C 1015.1 hPa NNW 22.2 km/h 22.2 km/h 41 % 0.0 mm 923.0 W/m2 CLR
14:45 22.8 °C 9.2 °C 1015.1 hPa NW 24.1 km/h 24.1 km/h 42 % 0.0 mm 788.0 W/m2 CLR
14:50 22.7 °C 9.2 °C 1015.1 hPa North 18.5 km/h 18.5 km/h 42 % 0.0 mm 684.0 W/m2 CLR
14:55 22.8 °C 9.6 °C 1015.1 hPa North 18.5 km/h 18.5 km/h 43 % 0.0 mm 879.0 W/m2 CLR
15:00 23.0 °C 9.7 °C 1014.8 hPa North 19.3 km/h 19.3 km/h 43 % 0.0 mm 902.0 W/m2 CLR
15:05 23.3 °C 9.7 °C 1014.8 hPa NW 19.3 km/h 19.3 km/h 42 % 0.0 mm 858.0 W/m2 CLR
15:10 23.4 °C 9.4 °C 1014.8 hPa NW 3.7 km/h   41 % 0.0 mm 838.0 W/m2 CLR
15:15 23.6 °C 9.6 °C 1014.8 hPa Calm     41 % 0.0 mm 842.0 W/m2 CLR
15:20 23.8 °C 9.4 °C 1014.8 hPa NW 24.1 km/h 24.1 km/h 40 % 0.0 mm 846.0 W/m2 CLR
15:25 23.7 °C 9.6 °C 1014.4 hPa NW 19.3 km/h 19.3 km/h 41 % 0.0 mm 833.0 W/m2 CLR
15:30 23.6 °C 9.6 °C 1014.4 hPa NNW 18.5 km/h 18.5 km/h 41 % 0.0 mm 838.0 W/m2 CLR
15:35 23.5 °C 9.5 °C 1014.4 hPa ENE 6.4 km/h 6.4 km/h 41 % 0.0 mm 821.0 W/m2 CLR
15:40 23.5 °C 9.5 °C 1014.4 hPa NW 20.4 km/h 20.4 km/h 41 % 0.0 mm 786.0 W/m2 CLR
15:45 23.8 °C 9.7 °C 1014.4 hPa NNW 24.1 km/h 24.1 km/h 41 % 0.0 mm 856.0 W/m2 CLR
15:50 23.8 °C 9.4 °C 1014.4 hPa NW 7.4 km/h 7.4 km/h 40 % 0.0 mm 847.0 W/m2 CLR
15:55 23.9 °C 9.9 °C 1014.4 hPa NNW 16.7 km/h 16.7 km/h 41 % 0.0 mm 831.0 W/m2 CLR
16:00 23.9 °C 9.5 °C 1014.1 hPa North 7.4 km/h 7.4 km/h 40 % 0.0 mm 821.0 W/m2 CLR
16:05 23.8 °C 9.4 °C 1014.1 hPa North 24.1 km/h 24.1 km/h 40 % 0.0 mm 810.0 W/m2 CLR
16:10 23.8 °C 9.1 °C 1014.1 hPa North 14.8 km/h 17.5 km/h 39 % 0.0 mm 802.0 W/m2 CLR
16:15 24.1 °C 9.3 °C 1014.1 hPa North 18.5 km/h 18.5 km/h 39 % 0.0 mm 793.0 W/m2 CLR
16:20 24.1 °C 8.9 °C 1014.1 hPa NNW 20.4 km/h 20.4 km/h 38 % 0.0 mm 777.0 W/m2 CLR
16:25 24.2 °C 9.4 °C 1013.8 hPa NW 16.7 km/h 16.7 km/h 39 % 0.0 mm 761.0 W/m2 CLR
16:30 24.4 °C 9.2 °C 1013.8 hPa NNE 20.4 km/h 20.4 km/h 38 % 0.0 mm 742.0 W/m2 CLR
16:35 24.6 °C 9.3 °C 1013.8 hPa North 18.5 km/h 18.5 km/h 38 % 0.0 mm 615.0 W/m2 CLR
16:40 24.1 °C 8.5 °C 1013.8 hPa NW 16.7 km/h 16.7 km/h 37 % 0.0 mm 264.0 W/m2 CLR
16:45 24.0 °C 9.2 °C 1013.8 hPa North 16.7 km/h 16.7 km/h 39 % 0.0 mm 610.0 W/m2 CLR
16:50 24.1 °C 8.8 °C 1013.8 hPa NNW 18.5 km/h 18.5 km/h 38 % 0.0 mm 438.0 W/m2 CLR
16:51 24.1 °C 8.8 °C 1013.8 hPa North 18.5 km/h 18.5 km/h 38 % 0.0 mm 438.0 W/m2 CLR
16:56 24.0 °C 8.8 °C 1013.8 hPa NNW 16.7 km/h 16.7 km/h 38 % 0.0 mm 747.0 W/m2 CLR
17:01 24.3 °C 9.5 °C 1013.4 hPa NNW 16.7 km/h 16.7 km/h 39 % 0.0 mm 707.0 W/m2 CLR
17:06 24.3 °C 9.5 °C 1013.4 hPa North 3.7 km/h 3.7 km/h 39 % 0.0 mm 664.0 W/m2 CLR
17:11 24.4 °C 9.2 °C 1013.4 hPa North 24.1 km/h 24.1 km/h 38 % 0.0 mm 612.0 W/m2 CLR
17:16 24.2 °C 8.9 °C 1013.4 hPa North 5.6 km/h 5.6 km/h 38 % 0.0 mm 545.0 W/m2 CLR
17:21 24.1 °C 8.8 °C 1013.4 hPa North 20.4 km/h 20.4 km/h 38 % 0.0 mm 459.0 W/m2 CLR
17:26 24.0 °C 8.8 °C 1013.4 hPa NNW 17.7 km/h 17.7 km/h 38 % 0.0 mm 489.0 W/m2 CLR
17:31 23.9 °C 9.4 °C 1013.4 hPa North 3.7 km/h 3.7 km/h 40 % 0.0 mm 494.0 W/m2 CLR
17:36 24.1 °C 8.9 °C 1013.4 hPa North 18.5 km/h 18.5 km/h 38 % 0.0 mm 564.0 W/m2 CLR
17:41 24.2 °C 9.4 °C 1013.4 hPa NW 5.6 km/h 5.6 km/h 39 % 0.0 mm 554.0 W/m2 CLR
17:46 24.4 °C 8.3 °C 1013.4 hPa NNW 5.6 km/h 5.6 km/h 36 % 0.0 mm 536.0 W/m2 CLR
17:51 24.4 °C 8.3 °C 1013.4 hPa North 1.9 km/h   36 % 0.0 mm 512.0 W/m2 CLR
17:56 24.6 °C 8.1 °C 1013.4 hPa Calm   2.7 km/h 35 % 0.0 mm 497.0 W/m2 CLR
18:01 24.5 °C 7.6 °C 1013.4 hPa WNW 20.4 km/h 20.4 km/h 34 % 0.0 mm 480.0 W/m2 CLR
18:06 24.4 °C 7.5 °C 1013.4 hPa Calm     34 % 0.0 mm 462.0 W/m2 CLR
18:11 24.8 °C 7.4 °C 1013.4 hPa NW 8.0 km/h 8.0 km/h 33 % 0.0 mm 438.0 W/m2 CLR
18:12 24.9 °C 7.1 °C 1013.1 hPa NW 8.0 km/h 8.0 km/h 32 % 0.0 mm 432.0 W/m2 CLR
18:17 24.8 °C 7.4 °C 1013.4 hPa Calm     33 % 0.0 mm 413.0 W/m2 CLR
18:22 24.9 °C 8.0 °C 1013.4 hPa NNW 6.4 km/h 6.4 km/h 34 % 0.0 mm 399.0 W/m2 CLR
18:27 24.7 °C 7.7 °C 1013.4 hPa NNW 11.1 km/h 11.1 km/h 34 % 0.0 mm 380.0 W/m2 CLR
18:29 24.6 °C 7.3 °C 1013.4 hPa NNW 7.4 km/h 7.4 km/h 33 % 0.0 mm 376.0 W/m2 CLR
18:34 24.7 °C 7.8 °C 1013.4 hPa NW 9.3 km/h 9.3 km/h 34 % 0.0 mm 355.0 W/m2 CLR
18:39 24.6 °C 7.7 °C 1013.4 hPa NW 7.4 km/h 7.4 km/h 34 % 0.0 mm 339.0 W/m2 CLR
18:44 24.6 °C 7.7 °C 1013.1 hPa NNW 5.6 km/h 5.6 km/h 34 % 0.0 mm 323.0 W/m2 CLR
18:49 24.6 °C 7.7 °C 1013.1 hPa NW 1.9 km/h 2.1 km/h 34 % 0.0 mm 308.0 W/m2 CLR
18:54 24.4 °C 7.1 °C 1013.1 hPa NNW 13.0 km/h 13.0 km/h 33 % 0.0 mm 292.0 W/m2 CLR
18:59 24.5 °C 7.2 °C 1013.1 hPa NNW 5.6 km/h   33 % 0.0 mm 272.0 W/m2 CLR
19:04 24.5 °C 6.7 °C 1013.1 hPa NW 11.1 km/h 11.1 km/h 32 % 0.0 mm 257.0 W/m2 CLR
19:09 24.5 °C 6.3 °C 1013.1 hPa WNW 11.1 km/h 11.1 km/h 31 % 0.0 mm 236.0 W/m2 CLR
19:14 24.4 °C 6.6 °C 1013.1 hPa NW 11.3 km/h 11.3 km/h 32 % 0.0 mm 213.0 W/m2 CLR
19:19 24.3 °C 6.9 °C 1013.1 hPa WNW 5.6 km/h 5.6 km/h 33 % 0.0 mm 193.0 W/m2 CLR
19:24 24.3 °C 6.5 °C 1013.4 hPa NNW 5.6 km/h 5.6 km/h 32 % 0.0 mm 176.0 W/m2 CLR
19:29 24.3 °C 6.1 °C 1013.4 hPa NW 12.9 km/h 12.9 km/h 31 % 0.0 mm 156.0 W/m2 CLR
19:34 24.1 °C 5.9 °C 1013.4 hPa NW 14.8 km/h 14.8 km/h 31 % 0.0 mm 137.0 W/m2 CLR
19:40 23.9 °C 6.2 °C 1013.4 hPa NNW 18.5 km/h 18.5 km/h 32 % 0.0 mm 118.0 W/m2 CLR
19:45 23.8 °C 5.6 °C 1013.4 hPa NW 7.4 km/h 7.4 km/h 31 % 0.0 mm 102.0 W/m2 CLR
19:50 23.7 °C 6.1 °C 1013.4 hPa NW 8.0 km/h 8.0 km/h 32 % 0.0 mm 86.0 W/m2 CLR
19:55 23.6 °C 5.9 °C 1013.4 hPa Calm     32 % 0.0 mm 72.0 W/m2 FEW
20:00 23.5 °C 6.3 °C 1013.4 hPa NW 9.7 km/h 9.7 km/h 33 % 0.0 mm 47.0 W/m2 SCT
20:05 23.2 °C 6.5 °C 1013.4 hPa NNW 14.8 km/h 14.8 km/h 34 % 0.0 mm 32.0 W/m2 BKN
20:10 22.9 °C 6.6 °C 1013.4 hPa NW 5.6 km/h 5.6 km/h 35 % 0.0 mm 23.0 W/m2 BKN
20:15 22.6 °C 6.4 °C 1013.4 hPa Calm     35 % 0.0 mm 19.0 W/m2 BKN
20:20 22.3 °C 6.6 °C 1013.4 hPa Calm     36 % 0.0 mm 16.0 W/m2 BKN
20:25 22.0 °C 6.6 °C 1013.8 hPa Calm     37 % 0.0 mm 11.0 W/m2 BKN
20:30 21.7 °C 6.4 °C 1013.8 hPa NW 5.6 km/h 5.6 km/h 37 % 0.0 mm 9.0 W/m2 BKN
20:35 21.6 °C 6.6 °C 1013.8 hPa NNW 8.0 km/h 8.0 km/h 38 % 0.0 mm 7.0 W/m2 BKN
20:40 21.4 °C 6.2 °C 1013.8 hPa NW 13.0 km/h 13.0 km/h 37 % 0.0 mm 0.0 W/m2 OVC
20:45 21.3 °C 6.1 °C 1013.8 hPa NW 11.1 km/h 11.1 km/h 37 % 0.0 mm 0.0 W/m2 OVC
20:50 21.1 °C 6.2 °C 1013.8 hPa NNW 11.1 km/h 11.1 km/h 38 % 0.0 mm 0.0 W/m2 OVC
20:55 20.9 °C 6.1 °C 1014.1 hPa NNW 11.1 km/h 11.1 km/h 38 % 0.0 mm 0.0 W/m2 CLR
21:00 20.7 °C 5.9 °C 1014.1 hPa NNW 11.1 km/h 11.1 km/h 38 % 0.0 mm 0.0 W/m2 CLR
21:05 20.6 °C 6.1 °C 1014.1 hPa NNW 14.8 km/h 14.8 km/h 39 % 0.0 mm 0.0 W/m2 CLR
21:06 20.6 °C 6.1 °C 1014.1 hPa NW 14.8 km/h 14.8 km/h 39 % 0.0 mm 0.0 W/m2 CLR
21:11 20.4 °C 6.0 °C 1014.1 hPa NNW 16.7 km/h 16.7 km/h 39 % 0.0 mm 0.0 W/m2 CLR
21:16 20.3 °C 6.2 °C 1014.4 hPa NNW 18.5 km/h 18.5 km/h 40 % 0.0 mm 0.0 W/m2 CLR
21:21 20.1 °C 6.7 °C 1014.4 hPa NW 16.7 km/h 16.7 km/h 42 % 0.0 mm 0.0 W/m2 CLR
21:26 19.8 °C 6.9 °C 1014.4 hPa WNW 18.5 km/h 18.5 km/h 43 % 0.0 mm 0.0 W/m2 CLR
21:31 19.7 °C 7.1 °C 1014.8 hPa NW 16.7 km/h 16.7 km/h 44 % 0.0 mm 0.0 W/m2 CLR
21:36 19.5 °C 6.9 °C 1014.8 hPa NW 14.8 km/h 14.8 km/h 44 % 0.0 mm 0.0 W/m2 CLR
21:41 19.4 °C 7.2 °C 1015.1 hPa NW 11.1 km/h 11.1 km/h 45 % 0.0 mm 0.0 W/m2 CLR
21:46 19.2 °C 7.3 °C 1015.1 hPa NW 11.1 km/h 11.1 km/h 46 % 0.0 mm 0.0 W/m2 CLR
21:51 18.9 °C 7.1 °C 1015.1 hPa WNW 8.0 km/h 8.0 km/h 46 % 0.0 mm 0.0 W/m2 CLR
21:56 18.7 °C 7.2 °C 1015.1 hPa WNW 6.4 km/h 6.4 km/h 47 % 0.0 mm 0.0 W/m2 CLR
22:01 18.6 °C 7.0 °C 1015.5 hPa NW 4.8 km/h 4.8 km/h 47 % 0.0 mm 0.0 W/m2 CLR
22:06 18.3 °C 7.1 °C 1015.5 hPa NW 3.7 km/h 3.7 km/h 48 % 0.0 mm 0.0 W/m2 CLR
22:11 18.2 °C 6.9 °C 1015.5 hPa WNW 3.7 km/h 3.7 km/h 48 % 0.0 mm 0.0 W/m2 CLR
22:16 18.0 °C 7.1 °C 1015.8 hPa WNW 5.6 km/h 5.6 km/h 49 % 0.0 mm 0.0 W/m2 CLR
22:21 18.0 °C 7.1 °C 1015.8 hPa WNW 5.6 km/h 5.6 km/h 49 % 0.0 mm 0.0 W/m2 CLR
22:26 18.0 °C 6.8 °C 1015.8 hPa WNW 5.6 km/h 5.6 km/h 48 % 0.0 mm 0.0 W/m2 CLR
22:31 17.8 °C 6.9 °C 1015.8 hPa West 6.4 km/h 6.4 km/h 49 % 0.0 mm 0.0 W/m2 CLR
22:36 17.7 °C 6.9 °C 1016.1 hPa West 9.3 km/h 9.3 km/h 49 % 0.0 mm 0.0 W/m2 CLR
22:41 17.7 °C 6.8 °C 1016.1 hPa WNW 11.3 km/h 11.3 km/h 49 % 0.0 mm 0.0 W/m2 CLR
22:46 17.6 °C 6.8 °C 1016.1 hPa West 9.7 km/h 9.7 km/h 49 % 0.0 mm 0.0 W/m2 CLR
22:51 17.6 °C 6.7 °C 1016.1 hPa West 16.1 km/h 16.1 km/h 49 % 0.0 mm 0.0 W/m2 CLR
22:56 17.6 °C 6.7 °C 1016.1 hPa WNW 17.7 km/h 17.7 km/h 49 % 0.0 mm 0.0 W/m2 CLR
23:01 17.4 °C 6.3 °C 1016.1 hPa West 24.1 km/h 24.1 km/h 48 % 0.0 mm 0.0 W/m2 CLR
23:06 17.2 °C 6.1 °C 1016.1 hPa West 27.8 km/h 27.8 km/h 48 % 0.0 mm 0.0 W/m2 CLR
23:11 17.0 °C 5.9 °C 1016.5 hPa WNW 20.4 km/h 20.4 km/h 48 % 0.0 mm 0.0 W/m2 CLR
23:16 16.9 °C 6.1 °C 1016.5 hPa WNW 24.1 km/h 24.1 km/h 49 % 0.0 mm 0.0 W/m2 CLR
23:21 16.8 °C 6.0 °C 1016.5 hPa WNW 29.0 km/h 29.0 km/h 49 % 0.0 mm 0.0 W/m2 CLR
23:26 16.7 °C 5.9 °C 1016.5 hPa WNW 25.9 km/h 25.9 km/h 49 % 0.0 mm 0.0 W/m2 CLR
23:31 16.6 °C 5.8 °C 1016.5 hPa WNW 25.9 km/h 25.9 km/h 49 % 0.0 mm 0.0 W/m2 CLR
23:36 16.4 °C 5.7 °C 1016.5 hPa WNW 20.4 km/h 20.4 km/h 49 % 0.0 mm 0.0 W/m2 CLR
23:41 16.3 °C 5.6 °C 1016.5 hPa WNW 24.1 km/h 24.1 km/h 49 % 0.0 mm 0.0 W/m2 CLR
23:46 16.2 °C 5.8 °C 1016.5 hPa West 27.4 km/h 27.4 km/h 50 % 0.0 mm 0.0 W/m2 CLR
23:51 16.1 °C 5.7 °C 1016.5 hPa WNW 27.8 km/h 27.8 km/h 50 % 0.0 mm 0.0 W/m2 CLR
23:56 15.9 °C 5.5 °C 1016.5 hPa WNW 24.1 km/h 24.1 km/h 50 % 0.0 mm 0.0 W/m2 CLR
Lo Temps de Massalio
Compliments of Weather Underground - 1.25 mb